Time;durP1;ratioP1;P1;durP2;ratioP2;P2;SDS_P1;SDS_P2;PMS_P1;PMS_P2;Temp;Humidity;BMP_temperature;BMP_pressure;BME280_temperature;BME280_humidity;BME280_pressure;Samples;Min_cycle;Max_cycle;Signal;HPM_P1;HPM_P2
2022/03/04 20:38:49;;;;;;;27.23;18.13;;;;;;;;;;4932969;28;1519286;-57
2022/03/04 20:41:16;;;;;;;24.57;18.07;;;;;;;;;;4990451;28;20872;-55
2022/03/04 20:43:42;;;;;;;25.93;19.07;;;;;;;;;;4986004;28;20027;-56
2022/03/04 20:46:09;;;;;;;28.07;18.90;;;;;;;;;;5007725;28;20025;-52
2022/03/04 20:48:35;;;;;;;26.83;18.67;;;;;;;;;;4993832;28;20035;-54
2022/03/04 20:51:01;;;;;;;26.85;18.73;;;;;;;;;;4997200;28;20030;-56
2022/03/04 20:53:29;;;;;;;28.57;19.53;;;;;;;;;;4990257;28;20026;-56
2022/03/04 20:55:55;;;;;;;26.97;18.47;;;;;;;;;;4979997;28;20054;-53
2022/03/04 20:58:21;;;;;;;24.67;18.07;;;;;;;;;;4986748;28;20030;-51
2022/03/04 21:00:47;;;;;;;27.40;18.37;;;;;;;;;;4978896;28;20030;-56
2022/03/04 21:03:13;;;;;;;26.03;18.50;;;;;;;;;;4994531;28;20034;-54
2022/03/04 21:05:39;;;;;;;25.17;19.10;;;;;;;;;;4989659;28;20054;-54
2022/03/04 21:08:05;;;;;;;26.03;19.20;;;;;;;;;;4982732;28;20086;-52
2022/03/04 21:10:31;;;;;;;30.20;19.60;;;;;;;;;;4992714;28;20042;-51
2022/03/04 21:12:57;;;;;;;27.13;18.20;;;;;;;;;;4990240;28;20439;-56
2022/03/04 21:15:23;;;;;;;25.03;19.20;;;;;;;;;;4976123;28;20093;-53
2022/03/04 21:17:52;;;;;;;26.47;19.17;;;;;;;;;;4993803;28;20117;-55
2022/03/04 21:20:18;;;;;;;25.87;18.27;;;;;;;;;;4994267;28;20057;-55
2022/03/04 21:22:45;;;;;;;27.27;18.67;;;;;;;;;;4987694;28;20031;-53
2022/03/04 21:25:11;;;;;;;27.03;18.10;;;;;;;;;;4987936;28;20023;-56
2022/03/04 21:27:37;;;;;;;25.53;18.60;;;;;;;;;;4994641;28;20073;-54
2022/03/04 21:30:05;;;;;;;22.90;17.60;;;;;;;;;;4989713;28;20491;-56
2022/03/04 21:32:31;;;;;;;24.50;18.30;;;;;;;;;;4999056;28;20018;-52
2022/03/04 21:34:57;;;;;;;26.17;17.87;;;;;;;;;;4993091;28;20027;-52
2022/03/04 21:37:23;;;;;;;26.67;19.30;;;;;;;;;;4993196;28;20045;-52
2022/03/04 21:39:50;;;;;;;24.30;17.33;;;;;;;;;;4991951;28;20519;-53
2022/03/04 21:42:16;;;;;;;24.90;18.33;;;;;;;;;;4987960;28;20471;-55
2022/03/04 21:44:42;;;;;;;27.47;19.07;;;;;;;;;;4997025;28;20037;-51
2022/03/04 21:47:09;;;;;;;28.27;18.83;;;;;;;;;;4994768;28;20034;-50
2022/03/04 21:49:35;;;;;;;27.17;18.97;;;;;;;;;;4992158;28;20026;-51
2022/03/04 21:52:01;;;;;;;24.73;18.07;;;;;;;;;;4988848;28;20033;-54
2022/03/04 21:54:27;;;;;;;26.63;18.93;;;;;;;;;;4987783;28;20034;-53
2022/03/04 21:56:53;;;;;;;31.27;20.43;;;;;;;;;;4994032;28;20113;-53
2022/03/04 21:59:19;;;;;;;25.23;18.43;;;;;;;;;;4992710;28;20101;-53
2022/03/04 22:01:45;;;;;;;27.27;20.23;;;;;;;;;;4992353;28;20034;-52
2022/03/04 22:04:12;;;;;;;25.33;19.33;;;;;;;;;;4994101;28;20101;-52
2022/03/04 22:06:38;;;;;;;26.57;18.60;;;;;;;;;;4997876;28;20037;-53
2022/03/04 22:09:04;;;;;;;25.80;18.27;;;;;;;;;;5007980;28;20077;-51
2022/03/04 22:11:30;;;;;;;25.93;19.23;;;;;;;;;;4994081;28;20060;-51
2022/03/04 22:13:57;;;;;;;27.23;20.10;;;;;;;;;;4993975;28;20023;-54
2022/03/04 22:16:23;;;;;;;29.73;19.93;;;;;;;;;;4996674;28;20530;-55
2022/03/04 22:18:49;;;;;;;26.23;19.33;;;;;;;;;;4991183;28;20058;-52
2022/03/04 22:21:15;;;;;;;26.80;19.93;;;;;;;;;;4992156;28;20034;-56
2022/03/04 22:23:42;;;;;;;29.07;20.70;;;;;;;;;;5010055;28;20018;-54
2022/03/04 22:26:08;;;;;;;34.30;22.90;;;;;;;;;;4975354;28;20054;-56
2022/03/04 22:28:34;;;;;;;37.67;25.50;;;;;;;;;;4983198;28;20018;-56
2022/03/04 22:31:00;;;;;;;25.70;18.90;;;;;;;;;;4989456;28;20049;-56
2022/03/04 22:33:26;;;;;;;27.23;18.93;;;;;;;;;;4974873;28;20381;-57
2022/03/04 22:35:52;;;;;;;27.77;18.23;;;;;;;;;;4995694;28;20022;-56
2022/03/04 22:38:19;;;;;;;25.27;17.30;;;;;;;;;;4988388;28;20033;-57
2022/03/04 22:40:45;;;;;;;24.97;18.20;;;;;;;;;;4992998;28;20046;-56
2022/03/04 22:43:11;;;;;;;28.00;18.00;;;;;;;;;;5011991;28;20101;-52
2022/03/04 22:45:37;;;;;;;24.93;18.63;;;;;;;;;;4993019;28;20018;-57
2022/03/04 22:48:03;;;;;;;30.83;20.47;;;;;;;;;;4991926;28;20105;-56
2022/03/04 22:50:29;;;;;;;30.27;18.87;;;;;;;;;;4987599;28;20498;-57
2022/03/04 22:52:55;;;;;;;26.30;16.67;;;;;;;;;;4991616;28;20387;-57
2022/03/04 22:55:22;;;;;;;22.20;16.83;;;;;;;;;;4987150;28;20113;-55
2022/03/04 22:57:48;;;;;;;28.13;18.87;;;;;;;;;;4994125;28;20026;-56
2022/03/04 23:00:38;;;;;;;23.10;17.50;;;;;;;;;;4991931;28;20144;-55
2022/03/04 23:08:33;;;;;;;25.20;17.10;;;;;;;;;;4994237;28;20069;-55
2022/03/04 23:13:45;;;;;;;27.25;16.67;;;;;;;;;;4978112;28;20049;-54
2022/03/04 23:16:11;;;;;;;24.87;17.23;;;;;;;;;;4988447;28;20037;-53
2022/03/04 23:18:37;;;;;;;26.13;17.67;;;;;;;;;;4993748;28;20022;-53
2022/03/04 23:21:03;;;;;;;23.63;16.73;;;;;;;;;;4993093;28;20046;-52
2022/03/04 23:23:29;;;;;;;23.67;15.43;;;;;;;;;;4993234;28;20105;-51
2022/03/04 23:25:56;;;;;;;26.07;16.33;;;;;;;;;;4992775;28;20034;-51
2022/03/04 23:28:22;;;;;;;24.53;16.30;;;;;;;;;;4993644;28;20026;-53
2022/03/04 23:30:48;;;;;;;23.57;16.47;;;;;;;;;;4975261;28;20132;-54
2022/03/04 23:33:14;;;;;;;25.07;16.47;;;;;;;;;;4993690;28;20030;-54
2022/03/04 23:35:40;;;;;;;23.73;15.60;;;;;;;;;;4992520;28;20026;-50
2022/03/04 23:38:06;;;;;;;25.87;15.90;;;;;;;;;;4990490;28;20061;-54
2022/03/04 23:40:32;;;;;;;25.20;15.17;;;;;;;;;;4977150;28;20054;-52
2022/03/04 23:42:58;;;;;;;21.97;14.80;;;;;;;;;;4978080;28;20365;-53
2022/03/04 23:45:24;;;;;;;26.13;15.30;;;;;;;;;;4989500;28;20045;-51
2022/03/04 23:47:50;;;;;;;25.77;16.67;;;;;;;;;;4993666;28;20018;-52
2022/03/04 23:50:16;;;;;;;24.07;14.77;;;;;;;;;;4991396;28;20581;-55
2022/03/04 23:52:42;;;;;;;22.60;15.20;;;;;;;;;;4983987;28;20114;-56
2022/03/04 23:55:08;;;;;;;23.07;14.47;;;;;;;;;;4989492;28;20113;-54
2022/03/04 23:57:34;;;;;;;20.80;14.57;;;;;;;;;;4998013;28;20031;-54
